createdAt,value
2019-03-05T00:00:50.603Z,0.00
2019-03-05T00:01:50.575Z,0.00
2019-03-05T00:02:50.542Z,0.00
2019-03-05T00:03:50.514Z,0.00
2019-03-05T00:04:50.485Z,0.00
2019-03-05T00:05:50.453Z,0.00
2019-03-05T00:06:50.430Z,0.00
2019-03-05T00:07:50.392Z,0.00
2019-03-05T00:08:50.371Z,0.00
2019-03-05T00:09:50.334Z,0.00
2019-03-05T00:10:50.303Z,0.00
2019-03-05T00:11:50.273Z,0.00
2019-03-05T00:12:50.242Z,0.00
2019-03-05T00:13:50.214Z,0.00
2019-03-05T00:14:50.184Z,0.00
2019-03-05T00:15:50.154Z,0.00
2019-03-05T00:16:50.122Z,0.00
2019-03-05T00:17:50.094Z,0.00
2019-03-05T00:18:50.062Z,0.00
2019-03-05T00:19:50.032Z,0.00
2019-03-05T00:20:50.002Z,0.00
2019-03-05T00:21:49.974Z,0.00
2019-03-05T00:22:49.950Z,0.00
2019-03-05T00:23:49.913Z,0.00
2019-03-05T00:24:49.883Z,0.00
2019-03-05T00:25:49.852Z,0.00
2019-03-05T00:26:49.821Z,0.00
2019-03-05T00:27:49.793Z,0.00
2019-03-05T00:28:49.762Z,0.00
2019-03-05T00:29:49.732Z,0.00
2019-03-05T00:30:49.760Z,0.00
2019-03-05T00:31:49.671Z,0.00
2019-03-05T00:32:49.641Z,0.00
2019-03-05T00:33:49.612Z,0.00
2019-03-05T00:34:49.582Z,0.00
2019-03-05T00:35:49.550Z,0.00
2019-03-05T00:36:49.521Z,0.00
2019-03-05T00:37:49.490Z,0.00
2019-03-05T00:38:49.459Z,0.00
2019-03-05T00:39:49.431Z,0.00
2019-03-05T00:40:49.401Z,0.00
2019-03-05T00:41:49.370Z,0.00
2019-03-05T00:42:49.340Z,0.00
2019-03-05T00:43:49.309Z,0.00
2019-03-05T00:44:49.279Z,0.00
2019-03-05T00:45:49.252Z,0.00
2019-03-05T00:46:49.218Z,0.00
2019-03-05T00:47:49.236Z,0.00
2019-03-05T00:48:49.159Z,0.00
2019-03-05T00:49:49.130Z,0.00
2019-03-05T00:50:49.098Z,0.00
2019-03-05T00:51:49.068Z,0.00
2019-03-05T00:52:49.037Z,0.00
2019-03-05T00:53:49.008Z,0.00
2019-03-05T00:54:48.979Z,0.00
2019-03-05T00:55:49.946Z,0.00
2019-03-05T00:56:48.916Z,0.00
2019-03-05T00:57:48.890Z,0.00
2019-03-05T00:58:48.855Z,0.00
2019-03-05T00:59:48.825Z,0.00
2019-03-05T01:00:48.796Z,0.00
2019-03-05T01:01:48.766Z,0.00
2019-03-05T01:02:48.734Z,0.00
2019-03-05T01:03:48.704Z,0.00
2019-03-05T01:04:48.675Z,0.00
2019-03-05T01:05:48.646Z,0.00
2019-03-05T01:06:48.616Z,0.00
2019-03-05T01:07:48.586Z,0.00
2019-03-05T01:08:48.552Z,0.00
2019-03-05T01:09:48.524Z,0.00
2019-03-05T01:10:48.493Z,0.00
2019-03-05T01:11:48.462Z,0.00
2019-03-05T01:12:48.433Z,0.00
2019-03-05T01:13:48.401Z,0.00
2019-03-05T01:14:48.373Z,0.00
2019-03-05T01:15:48.341Z,0.00
2019-03-05T01:16:48.316Z,0.00
2019-03-05T01:17:48.281Z,0.00
2019-03-05T01:18:48.251Z,0.00
2019-03-05T01:19:48.220Z,0.00
2019-03-05T01:20:48.193Z,0.00
2019-03-05T01:21:48.160Z,0.00
2019-03-05T01:22:48.131Z,0.00
2019-03-05T01:23:48.099Z,0.00
2019-03-05T01:24:48.072Z,0.00
2019-03-05T01:25:48.040Z,0.00
2019-03-05T01:26:48.010Z,0.00
2019-03-05T01:27:47.981Z,0.00
2019-03-05T01:28:47.951Z,0.00
2019-03-05T01:29:47.922Z,0.00
2019-03-05T01:30:47.890Z,0.00
2019-03-05T01:31:47.861Z,0.00
2019-03-05T01:32:47.831Z,0.00
2019-03-05T01:33:47.801Z,0.00
2019-03-05T01:34:47.776Z,0.00
2019-03-05T01:35:47.742Z,0.00
2019-03-05T01:36:47.712Z,0.00
2019-03-05T01:37:47.686Z,0.00
2019-03-05T01:38:47.653Z,0.00
2019-03-05T01:39:47.623Z,0.00
2019-03-05T01:40:47.593Z,0.00
2019-03-05T01:41:47.565Z,0.00
2019-03-05T01:42:47.534Z,0.00
2019-03-05T01:43:47.506Z,0.00
2019-03-05T01:44:47.478Z,0.00
2019-03-05T01:45:47.456Z,0.00
2019-03-05T01:46:47.417Z,0.00
2019-03-05T01:47:47.388Z,0.00
2019-03-05T01:48:47.358Z,0.00
2019-03-05T01:49:47.327Z,0.00
2019-03-05T01:50:47.298Z,0.00
2019-03-05T01:51:47.267Z,0.00
2019-03-05T01:52:47.239Z,0.00
2019-03-05T01:53:47.209Z,0.00
2019-03-05T01:54:47.177Z,0.00
2019-03-05T01:55:47.149Z,0.00
2019-03-05T01:56:47.118Z,0.00
2019-03-05T01:57:47.090Z,0.00
2019-03-05T01:58:47.058Z,0.00
2019-03-05T01:59:47.030Z,0.00
2019-03-05T02:00:47.000Z,0.00
2019-03-05T02:01:46.970Z,0.00
2019-03-05T02:02:46.940Z,0.00
2019-03-05T02:03:46.917Z,0.00
2019-03-05T02:04:46.881Z,0.00
2019-03-05T02:05:46.855Z,0.00
2019-03-05T02:06:46.822Z,0.00
2019-03-05T02:07:46.793Z,0.00
2019-03-05T02:08:46.762Z,0.00
2019-03-05T02:09:46.734Z,0.00
2019-03-05T02:10:46.705Z,0.00
2019-03-05T02:11:46.676Z,0.00
2019-03-05T02:12:46.645Z,0.00
2019-03-05T02:13:46.616Z,0.00
2019-03-05T02:14:46.586Z,0.00
2019-03-05T02:15:46.556Z,0.00
2019-03-05T02:16:46.526Z,0.00
2019-03-05T02:17:46.499Z,0.00
2019-03-05T02:18:46.466Z,0.00
2019-03-05T02:19:46.442Z,0.00
2019-03-05T02:20:46.408Z,0.00
2019-03-05T02:21:46.379Z,0.00
2019-03-05T02:22:46.349Z,0.00
2019-03-05T02:23:46.320Z,0.00
2019-03-05T02:24:46.291Z,0.00
2019-03-05T02:25:46.262Z,0.00
2019-03-05T02:26:46.238Z,0.00
2019-03-05T02:27:46.202Z,0.00
2019-03-05T02:28:46.173Z,0.00
2019-03-05T02:29:46.142Z,0.00
2019-03-05T02:30:46.114Z,0.00
2019-03-05T02:31:46.086Z,0.00
2019-03-05T02:32:46.064Z,0.00
2019-03-05T02:33:46.042Z,0.00
2019-03-05T02:34:45.996Z,0.00
2019-03-05T02:35:45.969Z,0.00
2019-03-05T02:36:45.949Z,0.00
2019-03-05T02:37:45.945Z,0.00
2019-03-05T02:38:45.878Z,0.00
2019-03-05T02:39:45.849Z,0.00
2019-03-05T02:40:45.817Z,0.00
2019-03-05T02:41:45.791Z,0.00
2019-03-05T02:42:45.761Z,0.00
2019-03-05T02:43:45.730Z,0.00
2019-03-05T02:44:45.807Z,0.00
2019-03-05T02:45:45.676Z,0.00
2019-03-05T02:46:45.641Z,0.00
2019-03-05T02:47:45.612Z,0.00
2019-03-05T02:48:45.585Z,0.00
2019-03-05T02:49:45.558Z,0.00
2019-03-05T02:50:45.525Z,0.00
2019-03-05T02:51:45.496Z,0.00
2019-03-05T02:52:45.466Z,0.00
2019-03-05T02:53:45.439Z,0.00
2019-03-05T02:54:45.406Z,0.00
2019-03-05T02:55:45.377Z,0.00
2019-03-05T02:56:45.348Z,0.00
2019-03-05T02:57:45.328Z,0.00
2019-03-05T02:58:45.287Z,0.00
2019-03-05T02:59:45.258Z,0.00
2019-03-05T03:00:45.229Z,0.00
2019-03-05T03:01:45.199Z,0.00
2019-03-05T03:02:45.169Z,0.00
2019-03-05T03:03:45.138Z,0.00
2019-03-05T03:04:45.112Z,0.00
2019-03-05T03:05:45.080Z,0.00
2019-03-05T03:06:45.050Z,0.00
2019-03-05T03:07:45.031Z,0.00
2019-03-05T03:08:44.991Z,0.00
2019-03-05T03:09:44.962Z,0.00
2019-03-05T03:10:44.931Z,0.00
2019-03-05T03:11:44.900Z,0.00
2019-03-05T03:12:44.955Z,0.00
2019-03-05T03:13:44.844Z,0.00
2019-03-05T03:14:44.812Z,0.00
2019-03-05T03:15:44.783Z,0.00
2019-03-05T03:16:44.752Z,0.00
2019-03-05T03:17:44.769Z,0.00
2019-03-05T03:18:44.692Z,0.00
2019-03-05T03:19:44.662Z,0.00
2019-03-05T03:20:44.635Z,0.00
2019-03-05T03:21:44.603Z,0.00
2019-03-05T03:22:44.574Z,0.00
2019-03-05T03:23:44.545Z,0.00
2019-03-05T03:24:44.515Z,0.00
2019-03-05T03:25:44.511Z,0.00
2019-03-05T03:26:44.461Z,0.00
2019-03-05T03:27:44.426Z,0.00
2019-03-05T03:28:44.398Z,0.00
2019-03-05T03:29:44.384Z,0.00
2019-03-05T03:30:44.337Z,0.00
2019-03-05T03:31:44.307Z,0.00
2019-03-05T03:32:44.279Z,0.00
2019-03-05T03:33:44.262Z,0.00
2019-03-05T03:34:44.221Z,0.00
2019-03-05T03:35:44.190Z,0.00
2019-03-05T03:36:44.160Z,0.00
2019-03-05T03:37:44.131Z,0.00
2019-03-05T03:38:44.101Z,0.00
2019-03-05T03:39:44.069Z,0.00
2019-03-05T03:40:44.040Z,0.00
2019-03-05T03:41:44.011Z,0.00
2019-03-05T03:42:43.980Z,0.00
2019-03-05T03:43:43.952Z,0.00
2019-03-05T03:44:43.924Z,0.00
2019-03-05T03:45:43.892Z,0.00
2019-03-05T03:46:43.861Z,0.00
2019-03-05T03:47:43.836Z,0.00
2019-03-05T03:48:43.809Z,0.00
2019-03-05T03:49:43.772Z,0.00
2019-03-05T03:50:43.742Z,0.00
2019-03-05T03:51:43.715Z,0.00
2019-03-05T03:52:43.683Z,0.00
2019-03-05T03:53:43.652Z,0.00
2019-03-05T03:54:43.621Z,0.00
2019-03-05T03:55:43.597Z,0.00
2019-03-05T03:56:43.563Z,0.00
2019-03-05T03:57:43.532Z,0.00
2019-03-05T03:58:43.502Z,0.00
2019-03-05T03:59:43.472Z,0.00
2019-03-05T04:00:43.465Z,0.00
2019-03-05T04:01:43.420Z,0.00
2019-03-05T04:02:43.401Z,0.00
2019-03-05T04:03:43.395Z,0.00
2019-03-05T04:04:43.321Z,0.00
2019-03-05T04:05:43.291Z,0.00
2019-03-05T04:06:43.259Z,0.00
2019-03-05T04:07:43.230Z,0.00
2019-03-05T04:08:43.200Z,0.00
2019-03-05T04:09:43.168Z,0.00
2019-03-05T04:10:43.145Z,0.00
2019-03-05T04:11:43.108Z,0.00
2019-03-05T04:12:43.079Z,0.00
2019-03-05T04:13:43.047Z,0.00
2019-03-05T04:14:43.016Z,0.00
2019-03-05T04:15:42.987Z,0.00
2019-03-05T04:16:42.957Z,0.00
2019-03-05T04:17:42.930Z,0.00
2019-03-05T04:18:42.898Z,0.00
2019-03-05T04:19:42.864Z,0.00
2019-03-05T04:20:42.835Z,0.00
2019-03-05T04:21:42.806Z,0.00
2019-03-05T04:22:42.773Z,0.00
2019-03-05T04:23:42.749Z,0.00
2019-03-05T04:24:42.712Z,0.00
2019-03-05T04:25:42.688Z,0.00
2019-03-05T04:26:42.650Z,0.00
2019-03-05T04:27:42.621Z,0.00
2019-03-05T04:28:42.591Z,0.00
2019-03-05T04:29:42.560Z,0.00
2019-03-05T04:30:42.532Z,0.00
2019-03-05T04:31:42.500Z,0.00
2019-03-05T04:32:42.471Z,0.00
2019-03-05T04:33:42.438Z,0.00
2019-03-05T04:34:42.405Z,0.00
2019-03-05T04:35:42.376Z,0.00
2019-03-05T04:36:42.346Z,0.00
2019-03-05T04:37:42.322Z,0.00
2019-03-05T04:38:42.285Z,0.00
2019-03-05T04:39:42.256Z,0.00
2019-03-05T04:40:42.225Z,0.00
2019-03-05T04:41:42.193Z,0.00
2019-03-05T04:42:42.163Z,0.00
2019-03-05T04:43:42.133Z,0.00
2019-03-05T04:44:42.102Z,0.00
2019-03-05T04:45:42.071Z,0.00
2019-03-05T04:46:42.039Z,0.00
2019-03-05T04:47:42.009Z,0.00
2019-03-05T04:48:41.980Z,0.00
2019-03-05T04:49:41.949Z,0.00
2019-03-05T04:50:41.917Z,0.00
2019-03-05T04:51:41.886Z,0.00
2019-03-05T04:52:41.857Z,0.00
2019-03-05T04:53:41.827Z,0.00
2019-03-05T04:54:41.794Z,0.00
2019-03-05T04:55:41.772Z,0.00
2019-03-05T04:56:41.733Z,0.00
2019-03-05T04:57:41.703Z,0.00
2019-03-05T04:58:41.674Z,0.00
2019-03-05T04:59:41.642Z,0.00
2019-03-05T05:00:41.612Z,0.00
2019-03-05T05:01:41.581Z,0.00
2019-03-05T05:02:41.550Z,0.00
2019-03-05T05:03:41.520Z,0.00
2019-03-05T05:04:41.490Z,0.00
2019-03-05T05:05:41.460Z,0.00
2019-03-05T05:06:41.426Z,0.00
2019-03-05T05:07:41.397Z,0.00
2019-03-05T05:08:41.367Z,0.00
2019-03-05T05:09:41.336Z,0.00
2019-03-05T05:10:41.305Z,0.00
2019-03-05T05:11:41.275Z,0.00
2019-03-05T05:12:41.245Z,0.00
2019-03-05T05:13:41.213Z,0.00
2019-03-05T05:14:41.183Z,0.00
2019-03-05T05:15:41.152Z,0.00
2019-03-05T05:16:41.189Z,0.00
2019-03-05T05:17:41.092Z,0.00
2019-03-05T05:18:41.060Z,0.00
2019-03-05T05:19:41.034Z,0.00
2019-03-05T05:20:40.999Z,0.00
2019-03-05T05:21:40.972Z,0.00
2019-03-05T05:22:40.937Z,4.00
2019-03-05T05:23:40.907Z,0.00
2019-03-05T05:24:40.877Z,4.00
2019-03-05T05:25:40.847Z,0.00
2019-03-05T05:26:40.817Z,4.00
2019-03-05T05:27:40.787Z,0.00
2019-03-05T05:28:40.756Z,4.00
2019-03-05T05:29:40.725Z,4.00
2019-03-05T05:30:40.711Z,8.00
2019-03-05T05:31:40.667Z,12.00
2019-03-05T05:32:40.635Z,12.00
2019-03-05T05:33:40.604Z,12.00
2019-03-05T05:34:40.571Z,12.00
2019-03-05T05:35:40.545Z,16.00
2019-03-05T05:36:40.513Z,24.00
2019-03-05T05:37:40.483Z,24.00
2019-03-05T05:38:40.454Z,28.00
2019-03-05T05:39:40.422Z,36.00
2019-03-05T05:40:40.391Z,48.00
2019-03-05T05:41:40.361Z,52.00
2019-03-05T05:42:40.329Z,52.00
2019-03-05T05:43:40.299Z,56.00
2019-03-05T05:44:40.270Z,72.00
2019-03-05T05:45:40.244Z,72.00
2019-03-05T05:46:40.210Z,76.00
2019-03-05T05:47:40.178Z,88.00
2019-03-05T05:48:40.148Z,88.00
2019-03-05T05:49:40.118Z,96.00
2019-03-05T05:50:40.086Z,124.00
2019-03-05T05:51:40.058Z,132.00
2019-03-05T05:52:40.028Z,128.00
2019-03-05T05:53:39.998Z,144.00
2019-03-05T05:54:39.966Z,172.00
2019-03-05T05:55:39.939Z,240.00
2019-03-05T05:56:39.907Z,292.00
2019-03-05T05:57:39.880Z,312.00
2019-03-05T05:58:39.848Z,384.00
2019-03-05T05:59:39.815Z,412.00
2019-03-05T06:00:39.784Z,424.00
2019-03-05T06:01:39.755Z,392.00
2019-03-05T06:02:39.723Z,336.00
2019-03-05T06:03:39.696Z,308.00
2019-03-05T06:04:39.663Z,296.00
2019-03-05T06:05:39.632Z,272.00
2019-03-05T06:06:39.603Z,268.00
2019-03-05T06:07:39.572Z,300.00
2019-03-05T06:08:39.545Z,320.00
2019-03-05T06:09:39.512Z,296.00
2019-03-05T06:10:39.481Z,288.00
2019-03-05T06:11:39.449Z,320.00
2019-03-05T06:12:39.420Z,356.00
2019-03-05T06:13:39.391Z,348.00
2019-03-05T06:14:39.359Z,344.00
2019-03-05T06:15:39.329Z,360.00
2019-03-05T06:16:39.300Z,472.00
2019-03-05T06:17:39.270Z,564.00
2019-03-05T06:18:39.237Z,740.00
2019-03-05T06:19:39.209Z,804.00
2019-03-05T06:20:39.179Z,728.00
2019-03-05T06:21:39.147Z,772.00
2019-03-05T06:22:39.116Z,960.00
2019-03-05T06:23:39.085Z,1168.00
2019-03-05T06:24:39.055Z,1248.00
2019-03-05T06:25:39.026Z,1180.00
2019-03-05T06:26:38.992Z,1112.00
2019-03-05T06:27:38.963Z,904.00
2019-03-05T06:28:38.933Z,784.00
2019-03-05T06:29:38.900Z,828.00
2019-03-05T06:30:38.869Z,1204.00
2019-03-05T06:31:38.838Z,1628.00
2019-03-05T06:32:38.808Z,1356.00
2019-03-05T06:33:38.783Z,868.00
2019-03-05T06:34:38.753Z,920.00
2019-03-05T06:35:38.715Z,1192.00
2019-03-05T06:36:38.687Z,1104.00
2019-03-05T06:37:38.661Z,912.00
2019-03-05T06:38:38.621Z,692.00
2019-03-05T06:39:38.589Z,576.00
2019-03-05T06:40:38.575Z,540.00
2019-03-05T06:41:38.530Z,500.00
2019-03-05T06:42:38.497Z,492.00
2019-03-05T06:43:38.465Z,572.00
2019-03-05T06:44:38.435Z,808.00
2019-03-05T06:45:38.403Z,1152.00
2019-03-05T06:46:38.373Z,1360.00
2019-03-05T06:47:38.341Z,1364.00
2019-03-05T06:48:38.309Z,1228.00
2019-03-05T06:49:38.277Z,1580.00
2019-03-05T06:50:38.247Z,1784.00
2019-03-05T06:51:38.217Z,1232.00
2019-03-05T06:52:38.185Z,844.00
2019-03-05T06:53:38.154Z,944.00
2019-03-05T06:54:38.123Z,1232.00
2019-03-05T06:55:38.091Z,1408.00
2019-03-05T06:56:38.060Z,1448.00
2019-03-05T06:57:38.029Z,1416.00
2019-03-05T06:58:38.045Z,1172.00
2019-03-05T06:59:37.965Z,948.00
2019-03-05T07:00:37.934Z,772.00
2019-03-05T07:01:37.903Z,972.00
2019-03-05T07:02:37.872Z,1784.00
2019-03-05T07:03:37.841Z,2488.00
2019-03-05T07:04:37.809Z,2784.00
2019-03-05T07:05:37.778Z,3080.00
2019-03-05T07:06:37.746Z,3328.00
2019-03-05T07:07:37.715Z,3652.00
2019-03-05T07:08:37.683Z,4296.00
2019-03-05T07:09:37.653Z,5476.00
2019-03-05T07:10:37.619Z,6592.00
2019-03-05T07:11:37.589Z,6544.00
2019-03-05T07:12:37.559Z,6408.00
2019-03-05T07:13:37.530Z,8312.00
2019-03-05T07:14:37.496Z,13092.00
2019-03-05T07:15:37.462Z,12252.00
2019-03-05T07:16:37.434Z,8812.00
2019-03-05T07:17:37.401Z,7400.00
2019-03-05T07:18:37.370Z,8756.00
2019-03-05T07:19:37.339Z,9928.00
2019-03-05T07:20:37.308Z,9520.00
2019-03-05T07:21:37.280Z,8620.00
2019-03-05T07:22:37.245Z,7944.00
2019-03-05T07:23:37.215Z,8348.00
2019-03-05T07:24:37.184Z,8588.00
2019-03-05T07:25:37.154Z,9000.00
2019-03-05T07:26:37.122Z,9032.00
2019-03-05T07:27:37.093Z,8844.00
2019-03-05T07:28:37.061Z,8644.00
2019-03-05T07:29:37.031Z,7804.00
2019-03-05T07:30:36.999Z,6940.00
2019-03-05T07:31:36.968Z,7036.00
2019-03-05T07:32:36.937Z,7416.00
2019-03-05T07:33:36.907Z,8072.00
2019-03-05T07:34:36.876Z,14996.00
2019-03-05T07:35:36.844Z,16608.00
2019-03-05T07:36:36.817Z,16960.00
2019-03-05T07:37:36.785Z,18336.00
2019-03-05T07:38:36.754Z,13696.00
2019-03-05T07:39:36.723Z,20832.00
2019-03-05T07:40:36.694Z,21856.00
2019-03-05T07:41:36.664Z,20416.00
2019-03-05T07:42:36.636Z,19808.00
2019-03-05T07:43:36.930Z,21056.00
2019-03-05T07:44:36.575Z,21088.00
2019-03-05T07:45:36.548Z,21120.00
2019-03-05T07:46:36.521Z,21024.00
2019-03-05T07:47:36.741Z,23456.00
2019-03-05T07:48:36.465Z,22720.00
2019-03-05T07:49:43.802Z,22080.00
2019-03-05T07:50:36.408Z,18912.00
2019-03-05T07:51:36.382Z,16800.00
2019-03-05T07:52:36.351Z,12548.00
2019-03-05T07:53:36.324Z,12292.00
2019-03-05T07:54:36.298Z,10580.00
2019-03-05T07:55:36.268Z,9972.00
2019-03-05T07:56:36.242Z,9112.00
2019-03-05T07:57:36.215Z,9536.00
2019-03-05T07:58:36.186Z,9552.00
2019-03-05T07:59:36.158Z,9468.00
2019-03-05T08:00:36.159Z,8656.00
2019-03-05T08:01:36.100Z,9708.00
2019-03-05T08:02:36.071Z,9284.00
2019-03-05T08:03:36.050Z,8148.00
2019-03-05T08:04:36.016Z,9996.00
2019-03-05T08:05:35.986Z,10352.00
2019-03-05T08:06:35.958Z,9804.00
2019-03-05T08:07:35.929Z,10508.00
2019-03-05T08:08:35.900Z,10224.00
2019-03-05T08:09:35.871Z,10016.00
2019-03-05T08:10:35.841Z,10220.00
2019-03-05T08:11:35.868Z,9084.00
2019-03-05T08:12:35.782Z,7584.00
2019-03-05T08:13:35.754Z,8316.00
2019-03-05T08:14:35.723Z,7920.00
2019-03-05T08:15:35.694Z,7672.00
2019-03-05T08:16:35.664Z,7256.00
2019-03-05T08:17:35.699Z,7048.00
2019-03-05T08:18:35.608Z,6720.00
2019-03-05T08:19:35.577Z,6276.00
2019-03-05T08:20:35.547Z,6608.00
2019-03-05T08:21:35.517Z,6572.00
2019-03-05T08:22:35.488Z,6444.00
2019-03-05T08:23:35.459Z,9240.00
2019-03-05T08:24:35.427Z,8964.00
2019-03-05T08:25:35.400Z,7684.00
2019-03-05T08:26:35.368Z,10508.00
2019-03-05T08:27:35.338Z,11352.00
2019-03-05T08:28:35.307Z,9684.00
2019-03-05T08:29:35.278Z,12132.00
2019-03-05T08:30:35.247Z,12728.00
2019-03-05T08:31:35.219Z,13712.00
2019-03-05T08:32:35.190Z,14700.00
2019-03-05T08:33:35.160Z,12480.00
2019-03-05T08:34:35.130Z,15900.00
2019-03-05T08:35:35.100Z,18080.00
2019-03-05T08:36:35.127Z,14752.00
2019-03-05T08:37:35.041Z,13176.00
2019-03-05T08:38:35.012Z,13952.00
2019-03-05T08:39:34.982Z,17008.00
2019-03-05T08:40:34.955Z,17568.00
2019-03-05T08:41:34.922Z,27200.00
2019-03-05T08:42:34.892Z,21344.00
2019-03-05T08:43:34.864Z,27840.00
2019-03-05T08:44:34.837Z,22432.00
2019-03-05T08:45:34.812Z,39872.00
2019-03-05T08:46:34.775Z,38240.00
2019-03-05T08:47:34.748Z,46656.00
2019-03-05T08:48:34.719Z,28352.00
2019-03-05T08:49:34.691Z,43808.00
2019-03-05T08:50:34.666Z,24256.00
2019-03-05T08:51:34.634Z,26560.00
2019-03-05T08:52:34.606Z,24288.00
2019-03-05T08:53:34.579Z,34400.00
2019-03-05T08:54:34.549Z,22624.00
2019-03-05T08:55:34.523Z,23584.00
2019-03-05T08:56:34.496Z,19744.00
2019-03-05T08:57:34.468Z,20672.00
2019-03-05T08:58:34.440Z,21600.00
2019-03-05T08:59:34.814Z,35968.00
2019-03-05T09:00:34.386Z,24960.00
2019-03-05T09:01:34.359Z,34688.00
2019-03-05T09:02:34.330Z,23776.00
2019-03-05T09:03:34.302Z,24288.00
2019-03-05T09:04:34.275Z,27200.00
2019-03-05T09:05:34.247Z,19808.00
2019-03-05T09:06:34.220Z,16864.00
2019-03-05T09:07:34.194Z,16684.00
2019-03-05T09:08:34.165Z,17408.00
2019-03-05T09:09:34.139Z,16336.00
2019-03-05T09:10:34.110Z,14384.00
2019-03-05T09:11:34.082Z,13212.00
2019-03-05T09:12:34.055Z,11092.00
2019-03-05T09:13:34.027Z,13952.00
2019-03-05T09:14:34.570Z,20128.00
2019-03-05T09:15:33.972Z,14616.00
2019-03-05T09:16:33.944Z,16316.00
2019-03-05T09:17:33.916Z,15992.00
2019-03-05T09:18:33.887Z,16572.00
2019-03-05T09:19:33.859Z,16672.00
2019-03-05T09:20:33.831Z,16688.00
2019-03-05T09:21:33.805Z,15988.00
2019-03-05T09:22:33.778Z,14152.00
2019-03-05T09:23:33.747Z,9624.00
2019-03-05T09:24:33.718Z,12940.00
2019-03-05T09:25:33.690Z,18784.00
2019-03-05T09:26:33.662Z,20032.00
2019-03-05T09:27:33.634Z,15348.00
2019-03-05T09:28:33.605Z,11152.00
2019-03-05T09:29:33.578Z,10432.00
2019-03-05T09:30:33.547Z,10164.00
2019-03-05T09:31:33.519Z,12088.00
2019-03-05T09:32:33.492Z,11592.00
2019-03-05T09:33:33.464Z,11016.00
2019-03-05T09:34:33.433Z,9880.00
2019-03-05T09:35:33.405Z,7848.00
2019-03-05T09:36:33.379Z,6632.00
2019-03-05T09:37:33.353Z,6332.00
2019-03-05T09:38:33.321Z,6500.00
2019-03-05T09:39:33.292Z,6824.00
2019-03-05T09:40:33.268Z,7848.00
2019-03-05T09:41:33.234Z,8424.00
2019-03-05T09:42:39.856Z,8824.00
2019-03-05T09:43:33.177Z,9984.00
2019-03-05T09:44:33.149Z,15212.00
2019-03-05T09:45:33.120Z,16640.00
2019-03-05T09:46:33.090Z,15928.00
2019-03-05T09:47:33.127Z,14304.00
2019-03-05T09:48:33.032Z,13100.00
2019-03-05T09:49:33.004Z,12044.00
2019-03-05T09:50:32.976Z,12236.00
2019-03-05T09:51:32.946Z,12096.00
2019-03-05T09:52:32.917Z,12264.00
2019-03-05T09:53:32.891Z,10288.00
2019-03-05T09:54:32.859Z,12552.00
2019-03-05T09:55:32.833Z,16508.00
2019-03-05T09:56:32.804Z,17440.00
2019-03-05T09:57:32.775Z,15812.00
2019-03-05T09:58:32.752Z,14188.00
2019-03-05T09:59:32.716Z,13240.00
2019-03-05T10:00:32.689Z,12920.00
2019-03-05T10:01:32.659Z,11712.00
2019-03-05T10:02:32.679Z,11048.00
2019-03-05T10:03:32.601Z,10468.00
2019-03-05T10:04:32.574Z,12412.00
2019-03-05T10:05:32.545Z,14752.00
2019-03-05T10:06:32.515Z,15876.00
2019-03-05T10:07:32.488Z,16320.00
2019-03-05T10:08:32.975Z,14108.00
2019-03-05T10:09:32.429Z,13216.00
2019-03-05T10:10:32.400Z,12568.00
2019-03-05T10:11:32.373Z,13400.00
2019-03-05T10:12:32.344Z,13960.00
2019-03-05T10:13:32.318Z,15360.00
2019-03-05T10:14:32.290Z,17984.00
2019-03-05T10:15:32.257Z,18400.00
2019-03-05T10:16:32.231Z,17028.00
2019-03-05T10:17:37.980Z,15256.00
2019-03-05T10:18:32.173Z,13844.00
2019-03-05T10:19:32.144Z,14248.00
2019-03-05T10:20:32.116Z,14908.00
2019-03-05T10:21:32.155Z,15772.00
2019-03-05T10:22:32.058Z,16368.00
2019-03-05T10:23:32.029Z,16684.00
2019-03-05T10:24:32.002Z,17824.00
2019-03-05T10:25:31.974Z,18496.00
2019-03-05T10:26:31.945Z,16348.00
2019-03-05T10:27:31.919Z,15540.00
2019-03-05T10:28:31.891Z,18080.00
2019-03-05T10:29:31.862Z,19648.00
2019-03-05T10:30:31.832Z,19200.00
2019-03-05T10:31:33.281Z,14120.00
2019-03-05T10:32:31.776Z,13996.00
2019-03-05T10:33:31.749Z,53696.00
2019-03-05T10:34:31.719Z,54080.00
2019-03-05T10:35:31.691Z,58176.00
2019-03-05T10:36:31.663Z,42368.00
2019-03-05T10:37:31.637Z,17164.00
2019-03-05T10:38:31.610Z,16424.00
2019-03-05T10:39:31.580Z,19392.00
2019-03-05T10:40:31.553Z,15728.00
2019-03-05T10:41:31.527Z,14832.00
2019-03-05T10:42:31.998Z,25312.00
2019-03-05T10:43:31.472Z,20928.00
2019-03-05T10:44:31.443Z,56320.00
2019-03-05T10:45:31.415Z,51968.00
2019-03-05T10:46:31.391Z,18912.00
2019-03-05T10:47:31.362Z,23904.00
2019-03-05T10:48:31.335Z,21280.00
2019-03-05T10:49:31.308Z,20640.00
2019-03-05T10:50:31.280Z,23712.00
2019-03-05T10:51:31.253Z,21600.00
2019-03-05T10:52:31.227Z,24544.00
2019-03-05T10:53:31.200Z,31008.00
2019-03-05T10:54:31.172Z,28896.00
2019-03-05T10:55:31.146Z,21408.00
2019-03-05T10:56:31.119Z,20096.00
2019-03-05T10:57:31.095Z,17248.00
2019-03-05T10:58:34.264Z,18592.00
2019-03-05T10:59:31.041Z,18592.00
2019-03-05T11:00:31.013Z,19840.00
2019-03-05T11:01:30.988Z,22464.00
2019-03-05T11:02:30.961Z,24640.00
2019-03-05T11:03:30.936Z,23264.00
2019-03-05T11:04:30.909Z,22944.00
2019-03-05T11:05:30.883Z,27136.00
2019-03-05T11:06:30.855Z,24224.00
2019-03-05T11:07:30.829Z,20128.00
2019-03-05T11:08:30.802Z,19616.00
2019-03-05T11:09:30.775Z,21184.00
2019-03-05T11:10:30.748Z,22080.00
2019-03-05T11:11:30.720Z,21856.00
2019-03-05T11:12:30.696Z,28736.00
2019-03-05T11:13:30.668Z,26432.00
2019-03-05T11:14:30.641Z,26656.00
2019-03-05T11:15:30.615Z,24960.00
2019-03-05T11:16:31.217Z,27840.00
2019-03-05T11:17:30.562Z,37984.00
2019-03-05T11:18:30.539Z,26848.00
2019-03-05T11:19:30.507Z,22720.00
2019-03-05T11:20:30.484Z,18976.00
2019-03-05T11:21:30.458Z,18784.00
2019-03-05T11:22:30.428Z,16944.00
2019-03-05T11:23:30.411Z,16552.00
2019-03-05T11:24:30.375Z,20672.00
2019-03-05T11:25:30.347Z,22400.00
2019-03-05T11:26:30.321Z,21312.00
2019-03-05T11:27:30.295Z,22944.00
2019-03-05T11:28:30.267Z,21088.00
2019-03-05T11:29:30.241Z,23328.00
2019-03-05T11:30:36.143Z,23424.00
2019-03-05T11:31:30.186Z,20928.00
2019-03-05T11:32:30.160Z,19872.00
2019-03-05T11:33:30.144Z,17444.00
2019-03-05T11:34:30.104Z,15044.00
2019-03-05T11:35:30.081Z,14296.00
2019-03-05T11:36:30.052Z,15224.00
2019-03-05T11:37:30.025Z,16756.00
2019-03-05T11:38:30.000Z,16572.00
2019-03-05T11:39:29.970Z,17952.00
2019-03-05T11:40:29.943Z,25312.00
2019-03-05T11:41:29.919Z,25376.00
2019-03-05T11:42:29.886Z,25696.00
2019-03-05T11:43:29.860Z,26880.00
2019-03-05T11:44:29.833Z,29312.00
2019-03-05T11:45:29.811Z,25536.00
2019-03-05T11:46:29.778Z,20992.00
2019-03-05T11:47:29.751Z,15780.00
2019-03-05T11:48:29.728Z,12896.00
2019-03-05T11:49:29.698Z,13120.00
2019-03-05T11:50:29.673Z,14232.00
2019-03-05T11:51:29.644Z,11692.00
2019-03-05T11:52:29.616Z,9980.00
2019-03-05T11:53:29.591Z,10840.00
2019-03-05T11:54:29.563Z,12664.00
2019-03-05T11:55:29.535Z,12268.00
2019-03-05T11:56:29.509Z,11332.00
2019-03-05T11:57:29.482Z,9860.00
2019-03-05T11:58:29.455Z,10028.00
2019-03-05T11:59:29.429Z,10412.00
2019-03-05T12:00:29.401Z,11080.00
2019-03-05T12:01:29.374Z,13624.00
2019-03-05T12:02:29.348Z,16092.00
2019-03-05T12:03:29.320Z,16540.00
2019-03-05T12:04:29.292Z,18208.00
2019-03-05T12:05:29.270Z,21280.00
2019-03-05T12:06:29.237Z,21792.00
2019-03-05T12:07:29.209Z,23040.00
2019-03-05T12:08:29.188Z,24064.00
2019-03-05T12:09:29.156Z,23552.00
2019-03-05T12:10:29.129Z,25632.00
2019-03-05T12:11:29.101Z,27840.00
2019-03-05T12:12:29.073Z,30848.00
2019-03-05T12:13:29.050Z,32448.00
2019-03-05T12:14:29.020Z,69408.00
2019-03-05T12:15:28.996Z,63136.00
2019-03-05T12:16:28.968Z,16300.00
2019-03-05T12:17:28.941Z,17952.00
2019-03-05T12:18:28.915Z,21760.00
2019-03-05T12:19:28.886Z,27712.00
2019-03-05T12:20:28.862Z,28672.00
2019-03-05T12:21:28.834Z,20704.00
2019-03-05T12:22:31.563Z,28320.00
2019-03-05T12:23:28.781Z,28832.00
2019-03-05T12:24:28.756Z,57632.00
2019-03-05T12:25:28.729Z,21856.00
2019-03-05T12:26:28.701Z,54624.00
2019-03-05T12:27:28.679Z,21696.00
2019-03-05T12:28:28.651Z,19200.00
2019-03-05T12:29:28.625Z,18496.00
2019-03-05T12:30:28.596Z,16656.00